Time;durP1;ratioP1;P1;durP2;ratioP2;P2;SDS_P1;SDS_P2;PMS_P1;PMS_P2;Temp;Humidity;BMP_temperature;BMP_pressure;BME280_temperature;BME280_humidity;BME280_pressure;Samples;Min_cycle;Max_cycle;Signal;HPM_P1;HPM_P2
2023/04/28 00:02:02;;;;;;;6.67;4.90;;;11.50;99.90;;;;;;5018393;28;20492;-79
2023/04/28 00:04:29;;;;;;;8.47;5.40;;;11.50;99.90;;;;;;5039588;22;20807;-78
2023/04/28 00:06:56;;;;;;;8.77;6.00;;;11.40;99.90;;;;;;5019201;28;20457;-78
2023/04/28 00:09:23;;;;;;;8.37;5.77;;;11.30;99.90;;;;;;5015411;28;20454;-78
2023/04/28 00:11:50;;;;;;;7.70;5.87;;;11.30;99.90;;;;;;5019708;28;21010;-77
2023/04/28 00:14:18;;;;;;;7.53;5.60;;;11.40;99.90;;;;;;5012660;28;21377;-77
2023/04/28 00:16:45;;;;;;;7.27;5.70;;;11.30;99.90;;;;;;5015984;28;20459;-78
2023/04/28 00:19:12;;;;;;;8.90;5.70;;;11.30;99.90;;;;;;5017984;28;20482;-79
2023/04/28 00:21:38;;;;;;;9.87;5.87;;;11.30;99.90;;;;;;5013950;28;20482;-80
2023/04/28 00:24:06;;;;;;;7.80;5.83;;;11.40;99.90;;;;;;5016738;28;20483;-78
2023/04/28 00:26:33;;;;;;;7.07;5.07;;;11.40;99.90;;;;;;5013986;28;20499;-79
2023/04/28 00:28:59;;;;;;;10.33;6.27;;;11.40;99.90;;;;;;5027632;28;20452;-79
2023/04/28 00:31:28;;;;;;;12.77;6.20;;;11.40;99.90;;;;;;5018814;28;20446;-78
2023/04/28 00:33:54;;;;;;;11.83;7.00;;;11.40;1.00;;;;;;5013057;28;20458;-79
2023/04/28 00:36:21;;;;;;;8.20;6.37;;;11.30;1.00;;;;;;5018975;28;20481;-79
2023/04/28 00:38:48;;;;;;;8.50;6.13;;;11.30;1.00;;;;;;5012608;28;20479;-79
2023/04/28 00:41:15;;;;;;;8.13;6.33;;;11.20;1.00;;;;;;5018546;28;20490;-79
2023/04/28 00:43:46;;;;;;;9.77;6.90;;;11.30;1.00;;;;;;5013523;28;20867;-79
2023/04/28 00:46:21;;;;;;;11.73;7.50;;;11.20;1.00;;;;;;5033601;28;20564;-78
2023/04/28 00:48:50;;;;;;;10.30;7.10;;;11.30;42.40;;;;;;5032396;28;20517;-79
2023/04/28 00:51:17;;;;;;;8.27;6.40;;;11.20;99.90;;;;;;5026984;28;20459;-79
2023/04/28 00:53:44;;;;;;;10.30;7.37;;;11.10;1.00;;;;;;5033538;28;20456;-80
2023/04/28 00:56:11;;;;;;;11.17;6.73;;;11.10;99.90;;;;;;5012111;28;20482;-79
2023/04/28 00:58:38;;;;;;;10.40;7.10;;;11.10;1.00;;;;;;5019248;28;20464;-80
2023/04/28 01:01:06;;;;;;;10.20;7.40;;;11.00;99.90;;;;;;5018324;28;20486;-79
2023/04/28 01:03:36;;;;;;;12.27;8.17;;;10.90;1.00;;;;;;5024441;28;20910;-79
2023/04/28 01:06:05;;;;;;;10.20;9.13;;;10.90;99.90;;;;;;5028517;28;20476;-79
2023/04/28 01:08:33;;;;;;;9.70;7.57;;;10.90;1.00;;;;;;5030262;28;21152;-79
2023/04/28 01:11:00;;;;;;;8.97;6.90;;;10.90;99.90;;;;;;5038872;28;20459;-80
2023/04/28 01:13:27;;;;;;;11.20;8.87;;;10.90;99.90;;;;;;5014588;28;20958;-79
2023/04/28 01:15:55;;;;;;;9.53;7.97;;;10.80;99.90;;;;;;5033172;28;20478;-79
2023/04/28 01:18:23;;;;;;;10.13;7.10;;;10.80;99.90;;;;;;5020478;28;20455;-80
2023/04/28 01:20:50;;;;;;;9.83;8.17;;;10.80;1.00;;;;;;5013369;28;21032;-80
2023/04/28 01:23:18;;;;;;;12.47;7.60;;;10.80;1.00;;;;;;5019616;28;20987;-80
2023/04/28 01:25:46;;;;;;;12.30;8.50;;;10.70;99.90;;;;;;5014235;28;21011;-80
2023/04/28 01:28:14;;;;;;;9.60;7.93;;;10.80;99.90;;;;;;5019848;28;20474;-80
2023/04/28 01:30:41;;;;;;;12.83;9.20;;;10.60;99.90;;;;;;5017803;28;20552;-79
2023/04/28 01:33:07;;;;;;;12.80;8.30;;;10.50;1.00;;;;;;5019513;28;20519;-80
2023/04/28 01:35:34;;;;;;;12.50;9.30;;;10.50;1.00;;;;;;5019234;28;20564;-80
2023/04/28 01:38:01;;;;;;;12.53;9.67;;;10.40;1.00;;;;;;5015195;28;20456;-80
2023/04/28 01:40:28;;;;;;;11.90;9.43;;;10.40;1.00;;;;;;5019266;28;20454;-80
2023/04/28 01:42:56;;;;;;;10.20;8.20;;;10.40;1.00;;;;;;5014551;28;20874;-80
2023/04/28 01:45:23;;;;;;;12.37;8.83;;;10.30;1.00;;;;;;5018397;28;20476;-79
2023/04/28 01:47:50;;;;;;;12.73;9.07;;;10.30;1.00;;;;;;5010994;28;21092;-78
2023/04/28 01:50:17;;;;;;;13.43;8.80;;;10.30;1.00;;;;;;5016552;28;20455;-80
2023/04/28 01:52:44;;;;;;;12.17;9.33;;;10.20;1.00;;;;;;5014789;28;20617;-80
2023/04/28 01:58:15;;;;;;;18.23;8.83;;;10.20;8.70;;;;;;5027154;28;20449;-81
2023/04/28 02:00:42;;;;;;;12.10;10.20;;;10.20;31.40;;;;;;5011478;28;20471;-80
2023/04/28 02:03:09;;;;;;;12.40;9.57;;;10.20;51.10;;;;;;5026773;28;21036;-80
2023/04/28 02:05:37;;;;;;;10.70;9.17;;;10.20;44.40;;;;;;5014827;28;20484;-80
2023/04/28 02:08:03;;;;;;;14.37;10.00;;;10.20;54.10;;;;;;5014483;28;20477;-79
2023/04/28 02:10:30;;;;;;;16.47;9.87;;;10.10;59.40;;;;;;5016786;28;20881;-78
2023/04/28 02:12:57;;;;;;;15.03;8.90;;;10.10;99.90;;;;;;5014499;28;20445;-79
2023/04/28 02:15:25;;;;;;;11.27;8.60;;;10.10;99.90;;;;;;5016458;28;21043;-79
2023/04/28 02:17:52;;;;;;;14.70;9.60;;;10.10;99.90;;;;;;5011196;28;20464;-80
2023/04/28 02:20:19;;;;;;;14.10;9.77;;;10.10;99.90;;;;;;5016268;28;20474;-79
2023/04/28 02:22:46;;;;;;;14.33;10.70;;;10.00;99.90;;;;;;5015156;28;20487;-79
2023/04/28 02:25:13;;;;;;;14.30;10.80;;;10.00;99.90;;;;;;5013237;28;20486;-79
2023/04/28 02:27:40;;;;;;;14.00;9.77;;;10.00;99.90;;;;;;5015668;28;20461;-81
2023/04/28 02:30:08;;;;;;;15.20;10.63;;;10.00;99.90;;;;;;5011919;28;20521;-79
2023/04/28 02:32:36;;;;;;;13.43;10.90;;;10.00;99.90;;;;;;5029565;28;20491;-79
2023/04/28 02:35:03;;;;;;;15.93;10.87;;;10.00;99.90;;;;;;5016768;28;20488;-79
2023/04/28 02:37:29;;;;;;;13.77;10.80;;;10.00;99.90;;;;;;5016364;28;21029;-79
2023/04/28 02:39:57;;;;;;;15.63;11.30;;;10.00;99.90;;;;;;5016754;28;20485;-79
2023/04/28 02:42:23;;;;;;;14.63;10.13;;;10.00;99.90;;;;;;5022845;28;20917;-79
2023/04/28 02:44:50;;;;;;;15.40;12.30;;;10.00;99.90;;;;;;5021497;28;20484;-80
2023/04/28 02:47:17;;;;;;;12.00;9.60;;;10.00;99.90;;;;;;5013774;28;20453;-80
2023/04/28 02:49:45;;;;;;;20.47;11.53;;;10.00;99.90;;;;;;5016325;28;20495;-79
2023/04/28 02:52:12;;;;;;;18.23;11.77;;;10.00;99.90;;;;;;5012129;28;20465;-81
2023/04/28 02:54:39;;;;;;;15.90;11.83;;;9.90;99.90;;;;;;5016652;28;20478;-79
2023/04/28 02:57:06;;;;;;;16.60;11.00;;;10.00;99.90;;;;;;5015369;28;20468;-79
2023/04/28 02:59:34;;;;;;;28.43;11.87;;;10.00;99.90;;;;;;5018922;28;20462;-79
2023/04/28 03:02:01;;;;;;;14.83;11.20;;;10.10;99.90;;;;;;5024983;28;20481;-79
2023/04/28 03:04:27;;;;;;;13.67;11.13;;;10.10;99.90;;;;;;5009561;28;20546;-78
2023/04/28 03:06:55;;;;;;;21.10;11.30;;;10.10;99.90;;;;;;5015143;28;20463;-79
2023/04/28 03:09:22;;;;;;;15.27;12.50;;;10.10;99.90;;;;;;5014318;28;20447;-78
2023/04/28 03:11:49;;;;;;;15.17;11.70;;;10.10;99.90;;;;;;5010404;28;20455;-79
2023/04/28 03:14:16;;;;;;;15.17;11.17;;;10.10;99.90;;;;;;5015387;28;20457;-79
2023/04/28 03:16:43;;;;;;;15.47;10.97;;;10.20;99.90;;;;;;5009022;28;20451;-79
2023/04/28 03:19:10;;;;;;;15.87;11.77;;;10.20;99.90;;;;;;5015742;28;20454;-79
2023/04/28 03:21:37;;;;;;;15.20;11.20;;;10.20;99.90;;;;;;5009455;28;20485;-79
2023/04/28 03:24:05;;;;;;;18.03;11.70;;;10.20;99.90;;;;;;5014981;28;20459;-80
2023/04/28 03:26:32;;;;;;;17.43;11.40;;;10.20;99.90;;;;;;5015691;28;20957;-79
2023/04/28 03:28:59;;;;;;;13.73;11.10;;;10.20;99.90;;;;;;5010647;28;20464;-79
2023/04/28 03:31:26;;;;;;;16.10;13.00;;;10.20;99.90;;;;;;5018929;28;20867;-78
2023/04/28 03:33:53;;;;;;;19.43;13.40;;;10.20;99.90;;;;;;5017369;28;20466;-78
2023/04/28 03:36:19;;;;;;;19.83;13.60;;;10.20;99.90;;;;;;5015139;28;20474;-79
2023/04/28 03:38:46;;;;;;;18.80;14.60;;;10.30;99.90;;;;;;5010152;28;20469;-79
2023/04/28 03:41:14;;;;;;;24.03;17.40;;;10.30;99.90;;;;;;5015809;28;20491;-80
2023/04/28 03:43:41;;;;;;;21.37;14.40;;;10.20;99.90;;;;;;5035379;28;21030;-79
2023/04/28 03:46:08;;;;;;;19.10;14.20;;;10.30;99.90;;;;;;5013693;28;20484;-79
2023/04/28 03:48:35;;;;;;;19.43;13.10;;;10.30;99.90;;;;;;5019544;28;20460;-81
2023/04/28 03:51:02;;;;;;;18.90;11.60;;;10.30;99.90;;;;;;5011823;28;20459;-80
2023/04/28 03:53:29;;;;;;;14.00;12.17;;;10.30;99.90;;;;;;5015401;28;20477;-80
2023/04/28 03:55:56;;;;;;;13.97;11.20;;;10.40;99.90;;;;;;5014338;28;20476;-80
2023/04/28 03:58:24;;;;;;;15.80;12.70;;;10.40;99.90;;;;;;5012794;28;20495;-79
2023/04/28 04:00:51;;;;;;;11.87;10.47;;;10.30;99.90;;;;;;5014956;28;21061;-80
2023/04/28 04:03:20;;;;;;;12.90;10.73;;;10.40;99.90;;;;;;5009970;28;20489;-80
2023/04/28 04:05:47;;;;;;;14.47;10.07;;;10.40;99.90;;;;;;5015134;28;20480;-81
2023/04/28 04:08:14;;;;;;;12.67;9.90;;;10.50;99.90;;;;;;5011475;28;20471;-80
2023/04/28 04:10:41;;;;;;;12.90;10.30;;;10.50;99.90;;;;;;5013640;28;20457;-79
2023/04/28 04:13:07;;;;;;;21.10;11.47;;;10.60;99.90;;;;;;5015084;28;20452;-80
2023/04/28 04:15:36;;;;;;;16.40;10.90;;;10.60;99.90;;;;;;5009210;28;20484;-80
2023/04/28 04:18:02;;;;;;;13.23;10.40;;;10.60;99.90;;;;;;5027827;28;20449;-79
2023/04/28 04:20:29;;;;;;;11.63;9.80;;;10.60;99.90;;;;;;5008786;28;20454;-79
2023/04/28 04:22:56;;;;;;;12.60;10.27;;;10.70;99.90;;;;;;5014553;28;20849;-80
2023/04/28 04:25:23;;;;;;;11.23;9.80;;;10.70;99.90;;;;;;5010693;28;20487;-78
2023/04/28 04:27:50;;;;;;;12.33;11.03;;;10.70;99.90;;;;;;5014128;28;20457;-79
2023/04/28 04:30:16;;;;;;;12.80;10.27;;;10.70;99.90;;;;;;5015473;28;20460;-80
2023/04/28 04:32:45;;;;;;;14.63;10.67;;;10.80;99.90;;;;;;5019882;28;20458;-80
2023/04/28 04:35:11;;;;;;;11.90;10.47;;;10.80;99.90;;;;;;5030510;28;20878;-78
2023/04/28 04:37:39;;;;;;;12.60;10.00;;;10.80;99.90;;;;;;5026426;28;20467;-79
2023/04/28 04:40:07;;;;;;;11.10;9.33;;;10.80;99.90;;;;;;5014253;28;20458;-79
2023/04/28 04:42:34;;;;;;;11.70;10.50;;;10.80;99.90;;;;;;5014837;28;20942;-79
2023/04/28 04:45:01;;;;;;;10.43;9.43;;;10.80;99.90;;;;;;5023252;28;20490;-81
2023/04/28 04:47:28;;;;;;;11.93;9.40;;;10.90;99.90;;;;;;5039110;28;20459;-80
2023/04/28 04:49:56;;;;;;;9.50;8.50;;;10.90;99.90;;;;;;5016078;28;20510;-80
2023/04/28 04:52:23;;;;;;;13.33;9.10;;;11.00;99.90;;;;;;5031824;28;21222;-80
2023/04/28 04:54:50;;;;;;;10.77;8.70;;;11.00;99.90;;;;;;5018272;28;21790;-81
2023/04/28 04:57:17;;;;;;;12.13;10.33;;;11.00;99.90;;;;;;5018259;28;20497;-80
2023/04/28 04:59:44;;;;;;;11.47;9.67;;;11.00;99.90;;;;;;5017988;28;20481;-79
2023/04/28 05:02:11;;;;;;;13.07;9.10;;;11.10;99.90;;;;;;5014125;28;20575;-79
2023/04/28 05:04:38;;;;;;;11.00;8.87;;;11.10;99.90;;;;;;5018797;28;21000;-79
2023/04/28 05:07:06;;;;;;;19.60;14.10;;;11.10;99.90;;;;;;5009985;28;20461;-78
2023/04/28 05:09:33;;;;;;;26.07;16.33;;;11.20;99.90;;;;;;4974181;28;20461;-79
2023/04/28 05:12:00;;;;;;;15.37;12.07;;;11.20;99.90;;;;;;5015373;28;20447;-79
2023/04/28 05:14:27;;;;;;;13.27;9.57;;;11.10;99.90;;;;;;5018174;28;20481;-80
2023/04/28 05:16:54;;;;;;;13.73;10.77;;;11.20;99.90;;;;;;5019505;28;20469;-80
2023/04/28 05:19:20;;;;;;;10.13;8.70;;;11.20;99.90;;;;;;5013804;28;20548;-78
2023/04/28 05:21:47;;;;;;;10.60;9.20;;;11.20;99.90;;;;;;5018803;28;20898;-79
2023/04/28 05:24:16;;;;;;;11.40;9.33;;;11.20;99.90;;;;;;5018529;28;20448;-78
2023/04/28 05:26:42;;;;;;;10.17;8.93;;;11.30;99.90;;;;;;5020302;28;20557;-80
2023/04/28 05:29:09;;;;;;;12.77;9.20;;;11.30;99.90;;;;;;5022852;28;20464;-81
2023/04/28 05:31:36;;;;;;;9.33;8.47;;;11.30;99.90;;;;;;5021473;28;20470;-80
2023/04/28 05:34:03;;;;;;;11.07;8.93;;;11.40;99.90;;;;;;5017315;28;20913;-79
2023/04/28 05:36:30;;;;;;;16.33;8.23;;;11.40;99.90;;;;;;5016639;28;20468;-79
2023/04/28 05:38:57;;;;;;;11.13;8.83;;;11.40;99.90;;;;;;5007838;28;20461;-80
2023/04/28 05:41:25;;;;;;;11.17;8.97;;;11.40;99.90;;;;;;5035342;28;20945;-79
2023/04/28 05:43:52;;;;;;;10.87;9.03;;;11.50;99.90;;;;;;5019606;28;20494;-79
2023/04/28 05:46:19;;;;;;;10.27;9.27;;;11.50;99.90;;;;;;5011467;28;20489;-79
2023/04/28 05:48:46;;;;;;;12.90;9.93;;;11.50;99.90;;;;;;5024917;28;20461;-79
2023/04/28 05:51:13;;;;;;;11.63;9.70;;;11.50;99.90;;;;;;5013896;28;20468;-80
2023/04/28 05:53:40;;;;;;;8.40;7.60;;;11.50;99.90;;;;;;5033406;28;20455;-82
2023/04/28 05:56:07;;;;;;;11.43;8.10;;;11.60;99.90;;;;;;5019637;28;20496;-80
2023/04/28 05:58:36;;;;;;;9.33;8.20;;;11.60;99.90;;;;;;5015638;28;20454;-81
2023/04/28 06:01:03;;;;;;;12.40;7.60;;;11.80;99.90;;;;;;5017290;28;20457;-82
2023/04/28 06:03:30;;;;;;;10.37;8.30;;;11.90;99.90;;;;;;5015785;28;20492;-82
2023/04/28 06:05:57;;;;;;;9.20;7.93;;;11.80;99.90;;;;;;5061618;22;20499;-78
2023/04/28 06:08:24;;;;;;;9.43;6.93;;;11.70;99.90;;;;;;5058707;28;20450;-81
2023/04/28 06:10:51;;;;;;;9.17;6.67;;;11.60;99.90;;;;;;5050237;28;20449;-81
2023/04/28 06:13:17;;;;;;;9.00;8.10;;;11.60;99.90;;;;;;5055849;28;20501;-79
2023/04/28 06:15:46;;;;;;;11.77;7.87;;;11.50;99.90;;;;;;5056505;28;20501;-82
2023/04/28 06:18:14;;;;;;;8.77;7.37;;;11.60;99.90;;;;;;5051405;28;20463;-80
2023/04/28 06:20:41;;;;;;;9.60;6.60;;;11.50;99.90;;;;;;5056333;28;20465;-78
2023/04/28 06:23:08;;;;;;;11.80;8.20;;;11.50;99.90;;;;;;5050663;28;20853;-80
2023/04/28 06:25:36;;;;;;;9.20;7.73;;;11.50;99.90;;;;;;5054858;28;20485;-78
2023/04/28 06:28:03;;;;;;;10.70;8.17;;;11.40;99.90;;;;;;5050910;28;20461;-78
2023/04/28 06:30:30;;;;;;;8.67;6.80;;;11.50;99.90;;;;;;5049132;28;20520;-77
2023/04/28 06:32:58;;;;;;;11.17;7.10;;;11.50;99.90;;;;;;5055810;28;20444;-78
2023/04/28 06:35:25;;;;;;;10.30;7.10;;;11.50;99.90;;;;;;5051236;28;20919;-78
2023/04/28 06:37:52;;;;;;;10.37;7.83;;;11.60;99.90;;;;;;5058560;28;20446;-78
2023/04/28 06:40:19;;;;;;;9.33;7.97;;;11.60;99.90;;;;;;5052113;28;20445;-77
2023/04/28 06:42:46;;;;;;;8.20;6.37;;;11.70;99.90;;;;;;5047824;28;21095;-78
2023/04/28 06:45:13;;;;;;;8.47;7.10;;;11.90;99.90;;;;;;5051637;28;20952;-78
2023/04/28 06:47:40;;;;;;;9.90;6.10;;;12.20;99.90;;;;;;5046373;28;20470;-79
2023/04/28 06:50:09;;;;;;;7.93;6.20;;;12.70;99.90;;;;;;5053096;28;20963;-79
2023/04/28 06:52:37;;;;;;;8.50;6.10;;;13.00;99.90;;;;;;5046725;28;20455;-78
2023/04/28 06:55:04;;;;;;;7.10;5.90;;;13.30;99.90;;;;;;5052126;28;20482;-79
2023/04/28 06:57:31;;;;;;;9.60;6.50;;;13.50;99.90;;;;;;5052911;28;20477;-79
2023/04/28 06:59:58;;;;;;;7.50;6.23;;;13.70;99.90;;;;;;5047664;28;20555;-78
2023/04/28 07:02:25;;;;;;;9.90;6.00;;;14.00;99.90;;;;;;5052679;28;20451;-78
2023/04/28 07:04:52;;;;;;;7.00;5.83;;;14.10;28.60;;;;;;5050311;28;20452;-78
2023/04/28 07:07:20;;;;;;;8.10;5.70;;;14.00;1.00;;;;;;5046973;28;20474;-80
2023/04/28 07:09:47;;;;;;;5.87;4.97;;;14.00;5.90;;;;;;5052784;28;20458;-79
2023/04/28 07:12:14;;;;;;;8.30;5.80;;;14.00;13.00;;;;;;5050872;28;20991;-79
2023/04/28 07:14:41;;;;;;;7.80;6.07;;;14.10;12.50;;;;;;5053248;28;20454;-79
2023/04/28 07:17:08;;;;;;;8.50;6.50;;;14.10;50.20;;;;;;5046591;28;20464;-79
2023/04/28 07:19:35;;;;;;;8.50;6.63;;;14.30;64.40;;;;;;5035243;28;20451;-79
2023/04/28 07:22:02;;;;;;;6.30;5.63;;;14.50;30.20;;;;;;5051115;28;20949;-77
2023/04/28 07:24:30;;;;;;;6.63;5.73;;;14.60;1.00;;;;;;5056263;28;20520;-79
2023/04/28 07:26:57;;;;;;;11.40;5.43;;;14.50;1.00;;;;;;5053368;28;20471;-79
2023/04/28 07:29:24;;;;;;;7.73;6.17;;;14.50;1.00;;;;;;5050569;28;20455;-79
2023/04/28 07:31:50;;;;;;;14.30;5.60;;;14.40;1.00;;;;;;5054475;28;20455;-79
2023/04/28 07:34:17;;;;;;;7.47;5.83;;;14.50;1.00;;;;;;5052997;28;20464;-77
2023/04/28 07:36:44;;;;;;;7.77;6.87;;;14.50;1.00;;;;;;5052937;28;20562;-79
2023/04/28 07:39:11;;;;;;;8.07;7.00;;;15.00;1.00;;;;;;5053647;28;20465;-79
2023/04/28 07:41:41;;;;;;;9.33;5.87;;;15.10;1.00;;;;;;5053024;28;20526;-79
2023/04/28 07:44:08;;;;;;;8.63;6.60;;;15.30;1.00;;;;;;5049421;28;20483;-77
2023/04/28 07:46:35;;;;;;;8.43;5.70;;;15.30;1.00;;;;;;5046711;28;20557;-79
2023/04/28 07:49:02;;;;;;;6.53;5.53;;;15.50;1.00;;;;;;5041701;28;20840;-78
2023/04/28 07:51:29;;;;;;;6.77;6.10;;;15.70;1.00;;;;;;5038103;28;20543;-79
2023/04/28 07:53:56;;;;;;;6.50;5.50;;;15.80;1.00;;;;;;5049729;28;20463;-79
2023/04/28 07:56:24;;;;;;;6.97;5.60;;;16.00;1.00;;;;;;5046700;28;20478;-79
2023/04/28 07:58:53;;;;;;;10.10;5.87;;;16.20;1.00;;;;;;5051895;28;20501;-79
2023/04/28 08:01:19;;;;;;;13.30;6.63;;;16.10;1.00;;;;;;5046469;28;20452;-76
2023/04/28 08:03:46;;;;;;;5.87;5.00;;;16.10;99.90;;;;;;5044522;28;20582;-79
2023/04/28 08:06:13;;;;;;;10.30;4.50;;;16.30;1.00;;;;;;5051899;28;20488;-79
2023/04/28 08:08:40;;;;;;;7.00;5.40;;;16.50;99.90;;;;;;5051590;28;21103;-79
2023/04/28 08:11:07;;;;;;;8.13;5.30;;;16.70;99.90;;;;;;5052180;28;20456;-79
2023/04/28 08:13:34;;;;;;;6.00;4.10;;;16.80;99.90;;;;;;5052930;28;20539;-79
2023/04/28 08:16:02;;;;;;;7.73;4.70;;;16.80;45.40;;;;;;5054577;28;20486;-77
2023/04/28 08:18:29;;;;;;;6.37;4.83;;;16.80;99.90;;;;;;5053401;28;20891;-78
2023/04/28 08:20:56;;;;;;;6.10;4.73;;;16.70;99.90;;;;;;5044133;28;20456;-79
2023/04/28 08:23:27;;;;;;;5.60;4.53;;;16.60;99.90;;;;;;5057272;28;20487;-79
2023/04/28 08:25:54;;;;;;;5.10;4.40;;;16.70;1.00;;;;;;5055099;28;20480;-79
2023/04/28 08:28:20;;;;;;;9.20;5.60;;;16.80;1.00;;;;;;5055805;28;20474;-80
2023/04/28 08:30:47;;;;;;;5.00;4.43;;;17.00;1.00;;;;;;5055348;28;20458;-77
2023/04/28 08:33:15;;;;;;;6.70;4.73;;;17.50;99.90;;;;;;5053324;28;20526;-79
2023/04/28 08:35:42;;;;;;;4.43;4.03;;;17.70;1.00;;;;;;5054914;28;20473;-79
2023/04/28 08:38:14;;;;;;;5.97;5.20;;;18.10;25.20;;;;;;5053702;28;20461;-77
2023/04/28 08:40:41;;;;;;;5.23;4.10;;;18.00;99.90;;;;;;5057129;28;20488;-79
2023/04/28 08:43:09;;;;;;;5.00;4.50;;;18.20;99.90;;;;;;5056371;28;20459;-78
2023/04/28 08:45:41;;;;;;;5.40;4.53;;;18.50;1.00;;;;;;5053515;28;20483;-78
2023/04/28 08:48:18;;;;;;;6.43;4.43;;;18.60;1.00;;;;;;5054916;28;21015;-78
2023/04/28 08:50:50;;;;;;;5.40;4.20;;;18.50;99.90;;;;;;5053864;28;20460;-78
2023/04/28 08:53:22;;;;;;;7.23;4.10;;;18.70;47.70;;;;;;5055659;28;20458;-78
2023/04/28 08:55:50;;;;;;;6.23;4.73;;;18.90;99.90;;;;;;5053621;28;20902;-78
2023/04/28 08:58:18;;;;;;;5.00;3.90;;;18.60;99.90;;;;;;5053700;28;20458;-77
2023/04/28 09:00:45;;;;;;;6.50;4.37;;;18.90;1.00;;;;;;5056688;28;20481;-79
2023/04/28 09:03:12;;;;;;;4.00;3.60;;;19.30;99.90;;;;;;5058472;28;20451;-81
2023/04/28 09:05:40;;;;;;;7.10;4.03;;;20.40;41.30;;;;;;5056606;28;20487;-82
2023/04/28 09:08:07;;;;;;;5.10;3.83;;;21.00;99.90;;;;;;5061239;28;20546;-81
2023/04/28 09:10:34;;;;;;;6.17;3.80;;;21.60;69.10;;;;;;5060098;28;20447;-79
2023/04/28 09:13:01;;;;;;;5.57;4.17;;;21.80;52.80;;;;;;5061458;28;20478;-80
2023/04/28 09:15:30;;;;;;;4.60;4.07;;;21.80;1.00;;;;;;5059399;28;20479;-78
2023/04/28 09:17:57;;;;;;;8.73;5.10;;;21.40;1.00;;;;;;5045554;28;21028;-80
2023/04/28 09:20:24;;;;;;;4.93;3.60;;;20.70;1.00;;;;;;5062420;28;20460;-81
2023/04/28 09:22:54;;;;;;;7.03;4.67;;;20.20;99.90;;;;;;5060859;28;20447;-80
2023/04/28 09:25:22;;;;;;;7.03;4.03;;;19.00;99.90;;;;;;5059947;28;20491;-80
2023/04/28 09:27:49;;;;;;;6.60;4.57;;;18.50;99.90;;;;;;5060846;28;20459;-79
2023/04/28 09:30:16;;;;;;;4.60;3.47;;;18.30;99.90;;;;;;5061168;28;20453;-80
2023/04/28 09:32:43;;;;;;;6.00;3.80;;;18.10;1.00;;;;;;5061708;28;21011;-80
2023/04/28 09:35:10;;;;;;;7.13;3.97;;;17.90;99.90;;;;;;5060822;28;20496;-80
2023/04/28 09:37:37;;;;;;;7.40;5.00;;;17.70;1.00;;;;;;5061517;28;20480;-80
2023/04/28 09:40:08;;;;;;;5.23;3.80;;;17.40;1.00;;;;;;5059458;28;20453;-79
2023/04/28 09:42:36;;;;;;;6.20;4.43;;;17.40;1.00;;;;;;5060582;28;20541;-80
2023/04/28 09:45:04;;;;;;;5.80;4.10;;;17.30;99.90;;;;;;5059173;28;20506;-80
2023/04/28 09:47:33;;;;;;;6.43;4.93;;;17.10;99.90;;;;;;5060951;28;20980;-80
2023/04/28 09:50:01;;;;;;;8.03;5.20;;;17.10;99.90;;;;;;5041265;28;20525;-80
2023/04/28 09:52:28;;;;;;;5.53;4.47;;;16.90;99.90;;;;;;5055073;28;20465;-79
2023/04/28 09:54:57;;;;;;;5.10;4.43;;;17.00;1.00;;;;;;5061064;28;20556;-80
2023/04/28 09:57:28;;;;;;;5.90;4.40;;;17.00;99.90;;;;;;5059276;28;20466;-80
2023/04/28 09:59:57;;;;;;;8.17;4.70;;;17.10;1.00;;;;;;5060829;28;20462;-80
2023/04/28 10:02:25;;;;;;;5.70;4.53;;;17.10;99.90;;;;;;5057618;28;20460;-79
2023/04/28 10:04:52;;;;;;;5.83;4.43;;;17.20;99.90;;;;;;5060066;28;21018;-79
2023/04/28 10:07:20;;;;;;;7.63;3.90;;;17.90;99.90;;;;;;5060801;28;20835;-79
2023/04/28 10:09:49;;;;;;;4.90;3.57;;;18.50;99.90;;;;;;5058545;28;20544;-80
2023/04/28 10:12:16;;;;;;;8.50;4.07;;;19.20;34.20;;;;;;5061319;28;20457;-80
2023/04/28 10:14:45;;;;;;;7.40;4.63;;;19.60;99.90;;;;;;5053710;28;20510;-79
2023/04/28 10:17:13;;;;;;;6.90;4.13;;;19.70;60.60;;;;;;5060383;28;20454;-80
2023/04/28 10:19:41;;;;;;;5.10;3.90;;;19.60;1.00;;;;;;5060088;28;20525;-80
2023/04/28 10:22:31;;;;;;;6.17;3.93;;;19.50;1.00;;;;;;5054108;28;20452;-79
2023/04/28 10:25:21;;;;;;;5.17;4.43;;;19.50;1.00;;;;;;5060599;28;20498;-80
2023/04/28 10:27:49;;;;;;;6.63;4.80;;;19.10;99.90;;;;;;5052044;28;21073;-80
2023/04/28 10:30:20;;;;;;;5.10;3.97;;;18.60;10.10;;;;;;5062160;28;20454;-80
2023/04/28 10:32:47;;;;;;;8.40;4.50;;;18.50;1.00;;;;;;5055549;28;20541;-78
2023/04/28 10:35:45;;;;;;;6.10;4.50;;;18.40;99.90;;;;;;5059465;28;20486;-79
2023/04/28 10:38:15;;;;;;;5.00;4.50;;;18.00;1.00;;;;;;5063405;28;20447;-80
2023/04/28 10:40:43;;;;;;;6.60;4.70;;;18.20;99.90;;;;;;5058362;28;20542;-80
2023/04/28 10:43:11;;;;;;;6.90;4.77;;;18.60;59.90;;;;;;5060063;28;20935;-81
2023/04/28 10:46:05;;;;;;;7.40;4.93;;;18.90;58.60;;;;;;5059259;28;20497;-81
2023/04/28 10:48:57;;;;;;;9.60;4.77;;;18.80;1.00;;;;;;5064165;28;20530;-80
2023/04/28 10:51:33;;;;;;;5.63;3.93;;;18.00;47.90;;;;;;5058482;28;20450;-80
2023/04/28 10:54:18;;;;;;;7.53;5.30;;;18.00;1.00;;;;;;5041929;28;20452;-79
2023/04/28 10:57:17;;;;;;;8.73;5.57;;;17.50;1.00;;;;;;5053037;28;20482;-80
2023/04/28 10:59:44;;;;;;;8.23;4.90;;;17.30;99.90;;;;;;5057017;28;20476;-80
2023/04/28 11:02:47;;;;;;;7.10;5.23;;;17.10;99.90;;;;;;5059481;28;20447;-80
2023/04/28 11:05:17;;;;;;;6.60;5.40;;;17.10;99.90;;;;;;5015633;28;20930;-80
2023/04/28 11:08:29;;;;;;;7.40;5.30;;;16.80;1.00;;;;;;5017917;28;20499;-80
2023/04/28 11:11:29;;;;;;;5.83;4.97;;;16.70;1.00;;;;;;5038709;28;20451;-80
2023/04/28 11:14:33;;;;;;;8.40;5.03;;;16.40;1.00;;;;;;5057611;28;20535;-80
2023/04/28 11:17:02;;;;;;;8.00;5.37;;;16.30;1.00;;;;;;5054952;28;20463;-80
2023/04/28 11:19:30;;;;;;;8.80;5.60;;;16.20;1.00;;;;;;5055817;28;20522;-79
2023/04/28 11:21:58;;;;;;;7.93;6.00;;;15.90;9.30;;;;;;5049148;28;21022;-79
2023/04/28 11:24:26;;;;;;;7.67;5.40;;;15.90;66.20;;;;;;5054787;28;20476;-79
2023/04/28 11:26:53;;;;;;;7.03;5.23;;;15.90;92.10;;;;;;5051716;28;20483;-79
2023/04/28 11:29:32;;;;;;;6.20;5.37;;;15.80;46.50;;;;;;5055333;28;20833;-80
2023/04/28 11:32:00;;;;;;;8.97;6.80;;;15.80;90.90;;;;;;5050224;28;20654;-80
2023/04/28 11:34:27;;;;;;;8.43;7.57;;;15.70;99.90;;;;;;5053649;28;20456;-79
2023/04/28 11:36:54;;;;;;;9.00;7.17;;;15.50;99.90;;;;;;5052876;28;20586;-79
2023/04/28 11:39:28;;;;;;;8.27;7.20;;;15.40;99.90;;;;;;5054676;28;20451;-80
2023/04/28 11:41:59;;;;;;;11.77;8.30;;;15.40;99.90;;;;;;5046801;28;20452;-78
2023/04/28 11:44:28;;;;;;;9.60;7.40;;;15.30;99.90;;;;;;5052665;28;20471;-79
2023/04/28 11:46:59;;;;;;;10.83;8.20;;;15.50;99.90;;;;;;5052903;28;20509;-80
2023/04/28 11:49:29;;;;;;;10.10;8.90;;;15.60;99.90;;;;;;5051146;28;20542;-78
2023/04/28 11:51:58;;;;;;;12.53;9.47;;;15.70;99.90;;;;;;5051507;28;20463;-80
2023/04/28 11:54:26;;;;;;;9.33;8.40;;;15.70;99.90;;;;;;5053203;28;20825;-79
2023/04/28 11:56:56;;;;;;;10.60;8.17;;;15.70;99.90;;;;;;5050576;28;20481;-79
2023/04/28 11:59:28;;;;;;;9.90;7.50;;;15.80;99.90;;;;;;5047220;28;20433;-78
2023/04/28 12:01:57;;;;;;;9.33;8.50;;;16.00;99.90;;;;;;5049365;28;20461;-79
2023/04/28 12:04:30;;;;;;;11.17;8.07;;;16.20;99.90;;;;;;5051776;28;20490;-80
2023/04/28 12:07:02;;;;;;;9.33;8.30;;;16.10;99.90;;;;;;5049440;23;20505;-83
2023/04/28 12:09:29;;;;;;;9.50;8.60;;;16.00;99.90;;;;;;5021902;28;20468;-83
2023/04/28 12:11:57;;;;;;;10.60;9.33;;;15.90;99.90;;;;;;5022162;28;20906;-84
2023/04/28 12:14:25;;;;;;;11.30;9.53;;;16.00;99.90;;;;;;5023137;28;20844;-84
2023/04/28 12:16:52;;;;;;;13.70;9.57;;;16.10;99.90;;;;;;5019151;28;20478;-83
2023/04/28 12:19:20;;;;;;;12.93;10.30;;;16.30;99.90;;;;;;5019117;28;20523;-84
2023/04/28 12:22:01;;;;;;;14.07;11.20;;;16.50;99.90;;;;;;5019851;28;20539;-84
2023/04/28 12:24:28;;;;;;;10.70;9.60;;;16.40;81.20;;;;;;5019689;28;20861;-83
2023/04/28 12:26:55;;;;;;;12.53;11.10;;;16.60;69.70;;;;;;5019765;28;20904;-84
2023/04/28 12:29:41;;;;;;;12.10;10.73;;;16.70;3.80;;;;;;5020828;28;20453;-83
2023/04/28 12:32:10;;;;;;;10.83;9.70;;;17.00;1.00;;;;;;5017504;28;20548;-83
2023/04/28 12:34:38;;;;;;;10.80;9.60;;;17.10;1.00;;;;;;5017152;28;20496;-82
2023/04/28 12:37:07;;;;;;;11.00;8.70;;;17.00;1.00;;;;;;5019430;28;20806;-83
2023/04/28 12:39:35;;;;;;;9.83;8.80;;;17.20;1.00;;;;;;5017391;28;20450;-84
2023/04/28 12:42:02;;;;;;;12.17;10.37;;;17.10;1.00;;;;;;5028964;28;20455;-83
2023/04/28 12:44:34;;;;;;;11.47;9.43;;;17.10;1.00;;;;;;5025380;28;20495;-84
2023/04/28 12:47:02;;;;;;;9.83;8.83;;;17.10;1.00;;;;;;5017352;28;20492;-83
2023/04/28 12:49:29;;;;;;;11.10;9.50;;;16.90;1.00;;;;;;5018695;28;20466;-83
2023/04/28 12:51:56;;;;;;;10.87;9.37;;;16.80;1.00;;;;;;5009025;28;20477;-84
2023/04/28 12:54:24;;;;;;;10.57;9.53;;;16.90;1.00;;;;;;5018049;28;21034;-83